Авиационная погода в Нижневартовске

СКИДКИ НА СМАРТФОНЫ!

Регион: 
Погода METAR: 
USNN 250400Z 00000MPS 9999 OVC029 03/02 Q1018 R03/0///65 NOSIG RMK QFE760
Время наблюдения
2022-09-25T04:00:00Z
Температура C
3.0
Точка росы
2.0
Направление ветра
0
Скорость ветра (узлы)
0
Метео видимость
6.21
Облачность
OVC
Нижняя граница облачности (футы)
2900
Явления погоды
Условия полета
MVFR
Аэропорт подробнее: 
OVC – сплошная облачность;

Скидки на навигаторы!